PWSweather.com
Personal Weather Stations
Station Observations
TARRYHILL
Tarrytown, NY 10591

Tarrytown, NY 10591

Lat: 41.05185, Lon: -73.85296

Elevation: 341

Station Type: Davis Vantage Vue

www.tarrytownnyweather.com

High Low Average
Temperature 38.8°F3.8°C 31.4°F-0.3°C 33.1°F0.6°C
Dew Point 32.4°F0.2°C 21.8°F-5.7°C 28.5°F-1.9°C
Winds 5.8 mph 9.3 kmh Calm Calm 2.0 mph WSW3.2 kmh WSW
Wind Gusts 11.5 mph18.5 kmh -- 4.0 mph6.4 kmh
Humidity 96% 63% 84%
Pressure 29.78 in1008.5 mb 29.62 in1003.0 mb -
Precipitation 0.25 in6.4 mm - -
Hour Temp Dew Point Humidity Winds Wind Gusts Pressure Precip Precip Rate Daily Precip Total
12:00 AM 33.1°F0.6°C 31.3°F-0.4°C 93% Calm Calm 2.3 mph3.7 kmh 29.80 in1009.1 mb - 0.01 in0.3 mm 0.01 in0.3 mm
12:30 AM 32.9°F0.5°C 31.4°F-0.3°C 94% 1.2 mph N1.9 kmh N 2.3 mph3.7 kmh 29.79 in1008.8 mb - 0.00 in0.0 mm 0.01 in0.3 mm
01:00 AM 32.5°F0.3°C 31.0°F-0.6°C 94% Calm Calm 1.2 mph1.9 kmh 29.78 in1008.5 mb - 0.00 in0.0 mm 0.01 in0.3 mm
01:30 AM 32.2°F0.1°C 30.7°F-0.7°C 94% 1.2 mph N1.9 kmh N 4.6 mph7.4 kmh 29.76 in1007.8 mb - 0.00 in0.0 mm 0.01 in0.3 mm
02:00 AM 32.0°F0.0°C 30.7°F-0.7°C 95% Calm Calm 1.2 mph1.9 kmh 29.75 in1007.5 mb - 0.00 in0.0 mm 0.01 in0.3 mm
02:30 AM 31.8°F-0.1°C 30.5°F-0.8°C 95% Calm Calm -- 29.73 in1006.8 mb - 0.00 in0.0 mm 0.01 in0.3 mm
03:00 AM 31.7°F-0.2°C 30.4°F-0.9°C 95% Calm Calm 2.3 mph3.7 kmh 29.71 in1006.1 mb - 0.00 in0.0 mm 0.01 in0.3 mm
03:30 AM 31.6°F-0.2°C 30.6°F-0.8°C 96% Calm Calm 1.2 mph1.9 kmh 29.68 in1005.1 mb - 0.00 in0.0 mm 0.01 in0.3 mm
04:00 AM 31.6°F-0.2°C 30.6°F-0.8°C 96% 1.2 mph NW1.9 kmh NW 2.3 mph3.7 kmh 29.66 in1004.4 mb - 0.00 in0.0 mm 0.01 in0.3 mm
04:30 AM 31.6°F-0.2°C 30.6°F-0.8°C 96% Calm Calm 2.3 mph3.7 kmh 29.65 in1004.1 mb - 0.00 in0.0 mm 0.01 in0.3 mm
05:00 AM 31.6°F-0.2°C 30.6°F-0.8°C 96% 1.2 mph NW1.9 kmh NW 3.5 mph5.6 kmh 29.64 in1003.7 mb - 0.00 in0.0 mm 0.01 in0.3 mm
05:30 AM 31.6°F-0.2°C 30.6°F-0.8°C 96% 1.2 mph N1.9 kmh N 2.3 mph3.7 kmh 29.63 in1003.4 mb - 0.00 in0.0 mm 0.01 in0.3 mm
06:00 AM 31.6°F-0.2°C 30.6°F-0.8°C 96% 2.3 mph 3.7 kmh 2.3 mph3.7 kmh 29.63 in1003.4 mb - 0.00 in0.0 mm 0.01 in0.3 mm
06:30 AM 31.6°F-0.2°C 30.6°F-0.8°C 96% 1.2 mph NNW1.9 kmh NNW 2.3 mph3.7 kmh 29.63 in1003.4 mb - 0.00 in0.0 mm 0.01 in0.3 mm
07:00 AM 31.4°F-0.3°C 30.4°F-0.9°C 96% Calm Calm 1.2 mph1.9 kmh 29.63 in1003.4 mb - 0.00 in0.0 mm 0.01 in0.3 mm
07:30 AM 31.4°F-0.3°C 30.4°F-0.9°C 96% Calm Calm -- 29.63 in1003.4 mb - 0.00 in0.0 mm 0.01 in0.3 mm
08:00 AM 31.5°F-0.3°C 30.5°F-0.8°C 96% Calm Calm -- 29.62 in1003.0 mb - 0.00 in0.0 mm 0.01 in0.3 mm
08:30 AM 31.6°F-0.2°C 30.6°F-0.8°C 96% Calm Calm -- 29.63 in1003.4 mb - 0.00 in0.0 mm 0.01 in0.3 mm
09:00 AM 31.5°F-0.3°C 30.5°F-0.8°C 96% Calm Calm -- 29.63 in1003.4 mb - 0.00 in0.0 mm 0.01 in0.3 mm
09:30 AM 31.5°F-0.3°C 30.5°F-0.8°C 96% Calm Calm -- 29.63 in1003.4 mb - 0.01 in0.3 mm 0.01 in0.3 mm
10:00 AM 31.7°F-0.2°C 30.7°F-0.7°C 96% Calm Calm -- 29.63 in1003.4 mb - 0.00 in0.0 mm 0.01 in0.3 mm
10:30 AM 31.9°F-0.1°C 30.9°F-0.6°C 96% Calm Calm -- 29.63 in1003.4 mb - 0.00 in0.0 mm 0.01 in0.3 mm
11:00 AM 32.2°F0.1°C 31.2°F-0.4°C 96% Calm Calm -- 29.63 in1003.4 mb - 0.00 in0.0 mm 0.01 in0.3 mm
11:30 AM 32.6°F0.3°C 31.6°F-0.2°C 96% Calm Calm -- 29.63 in1003.4 mb - 0.00 in0.0 mm 0.01 in0.3 mm
12:00 PM 32.5°F0.3°C 31.5°F-0.3°C 96% 3.5 mph NNW5.6 kmh NNW 8.1 mph13.0 kmh 29.64 in1003.7 mb - 0.00 in0.0 mm 0.01 in0.3 mm
12:30 PM 32.4°F0.2°C 31.1°F-0.5°C 95% 2.3 mph NW3.7 kmh NW 4.6 mph7.4 kmh 29.64 in1003.7 mb - 0.00 in0.0 mm 0.01 in0.3 mm
01:00 PM 32.4°F0.2°C 31.4°F-0.3°C 96% 2.3 mph N3.7 kmh N 4.6 mph7.4 kmh 29.65 in1004.1 mb - 0.00 in0.0 mm 0.01 in0.3 mm
01:30 PM 32.4°F0.2°C 31.4°F-0.3°C 96% 1.2 mph N1.9 kmh N 4.6 mph7.4 kmh 29.65 in1004.1 mb - 0.00 in0.0 mm 0.01 in0.3 mm
02:00 PM 33.4°F0.8°C 32.4°F0.2°C 96% 3.5 mph NE5.6 kmh NE 3.5 mph5.6 kmh 29.64 in1003.7 mb - 0.00 in0.0 mm 0.01 in0.3 mm
02:30 PM 33.3°F0.7°C 31.8°F-0.1°C 94% 3.5 mph N5.6 kmh N 2.3 mph3.7 kmh 29.65 in1004.1 mb - 0.00 in0.0 mm 0.01 in0.3 mm
03:00 PM 34.0°F1.1°C 31.9°F-0.1°C 92% 1.2 mph NE1.9 kmh NE 3.5 mph5.6 kmh 29.66 in1004.4 mb - 0.00 in0.0 mm 0.01 in0.3 mm
03:30 PM 35.9°F2.2°C 32.1°F0.1°C 86% 3.5 mph N5.6 kmh N 6.9 mph11.1 kmh 29.66 in1004.4 mb - 0.03 in0.8 mm 0.04 in1.0 mm
04:00 PM 37.5°F3.1°C 31.3°F-0.4°C 78% 2.3 mph NW3.7 kmh NW 3.5 mph5.6 kmh 29.66 in1004.4 mb - 0.06 in1.5 mm 0.10 in2.5 mm
04:30 PM 37.5°F3.1°C 29.6°F-1.3°C 73% 1.2 mph E1.9 kmh E 3.5 mph5.6 kmh 29.66 in1004.4 mb - 0.05 in1.3 mm 0.15 in3.8 mm
05:00 PM 38.8°F3.8°C 28.4°F-2.0°C 66% 4.6 mph WNW7.4 kmh WNW 11.5 mph18.5 kmh 29.66 in1004.4 mb - 0.05 in1.3 mm 0.19 in4.8 mm
05:30 PM 38.5°F3.6°C 27.0°F-2.8°C 63% 3.5 mph WSW5.6 kmh WSW 9.2 mph14.8 kmh 29.67 in1004.7 mb - 0.02 in0.5 mm 0.21 in5.3 mm
06:00 PM 37.6°F3.1°C 26.1°F-3.3°C 63% 1.2 mph N1.9 kmh N 6.9 mph11.1 kmh 29.67 in1004.7 mb - 0.02 in0.5 mm 0.23 in5.8 mm
06:30 PM 36.8°F2.7°C 25.3°F-3.7°C 63% 2.3 mph SSW3.7 kmh SSW 3.5 mph5.6 kmh 29.68 in1005.1 mb - 0.01 in0.3 mm 0.24 in6.1 mm
07:00 PM 35.2°F1.8°C 24.2°F-4.3°C 64% 4.6 mph SW7.4 kmh SW 9.2 mph14.8 kmh 29.70 in1005.8 mb - 0.01 in0.3 mm 0.25 in6.4 mm
07:30 PM 34.5°F1.4°C 23.6°F-4.7°C 64% 4.6 mph SW7.4 kmh SW 8.1 mph13.0 kmh 29.70 in1005.8 mb - 0.00 in0.0 mm 0.25 in6.4 mm
08:00 PM 34.4°F1.3°C 23.5°F-4.7°C 64% 2.3 mph SW3.7 kmh SW 3.5 mph5.6 kmh 29.71 in1006.1 mb - 0.00 in0.0 mm 0.25 in6.4 mm
08:30 PM 33.8°F1.0°C 23.3°F-4.8°C 65% 1.2 mph N1.9 kmh N 1.2 mph1.9 kmh 29.71 in1006.1 mb - 0.00 in0.0 mm 0.25 in6.4 mm
09:00 PM 33.5°F0.8°C 23.0°F-5.0°C 65% 2.3 mph S3.7 kmh S 4.6 mph7.4 kmh 29.71 in1006.1 mb - 0.00 in0.0 mm 0.25 in6.4 mm
09:30 PM 33.0°F0.6°C 22.5°F-5.3°C 65% 2.3 mph SW3.7 kmh SW 3.5 mph5.6 kmh 29.71 in1006.1 mb - 0.00 in0.0 mm 0.25 in6.4 mm
10:00 PM 32.8°F0.4°C 22.3°F-5.4°C 65% 3.5 mph S5.6 kmh S 4.6 mph7.4 kmh 29.71 in1006.1 mb - 0.00 in0.0 mm 0.25 in6.4 mm
10:30 PM 32.5°F0.3°C 22.0°F-5.6°C 65% 4.6 mph SW7.4 kmh SW 8.1 mph13.0 kmh 29.71 in1006.1 mb - 0.00 in0.0 mm 0.25 in6.4 mm
11:00 PM 32.0°F0.0°C 22.3°F-5.4°C 67% 1.2 mph SW1.9 kmh SW 5.8 mph9.3 kmh 29.71 in1006.1 mb - 0.00 in0.0 mm 0.25 in6.4 mm
11:30 PM 31.9°F-0.1°C 22.2°F-5.4°C 67% 1.2 mph SE1.9 kmh SE 2.3 mph3.7 kmh 29.70 in1005.8 mb - 0.00 in0.0 mm 0.25 in6.4 mm